Coraopolis, PA

10:19 PM EST on February 13, 2016 (GMT -0500)
Moon Township | | Change Station
CLOSE
Current Station
Personal Weather Station
Location: Moon Township, PA
Elevation: 1073 ft
Nearby Weather Stations
Active Advisory: Wind Chill Advisory Active Notice: Local Storm Report

Elev 1073 ft 40.52 °N, 80.20 °W | Updated 4 minutes ago

Partly Cloudy
Partly Cloudy
5.7 °F
Feels Like 6 °F
N
0.0
Wind Variable Wind from West

Today
High -- | Low -- °F
--% Chance of Precip.
Yesterday
High -- | Low -- °F
Precip. -- in
Pressure 30.51 in
Visibility 10.0 miles
Clouds Few 3300 ft
Scattered Clouds 3800 ft
Windchill 6 °F
Dew Point 0 °F
Humidity 78%
Rainfall 0.00 in
Snow Depth Not available.
7:17 AM 5:53 PM
Waxing Crescent, 37% visible
METAR KPIT 140251Z 27004KT 10SM FEW033 SCT038 M16/M19 A3040 RMK AO2 SLP331 T11561189 51003
Pressure 30.51 in
Visibility 10.0 miles
Clouds Few 3300 ft
Scattered Clouds 3800 ft
Windchill 6 °F
Dew Point 0 °F
Humidity 78%
Rainfall 0.00 in
Snow Depth Not available.
7:17 AM 5:53 PM
Waxing Crescent, 37% visible
METAR KPIT 140251Z 27004KT 10SM FEW033 SCT038 M16/M19 A3040 RMK AO2 SLP331 T11561189 51003

10-Day Weather Forecast

Almanac

Astronomy

Feb. 13, 2016 Rise Set
Actual Time
Civil Twilight
Nautical Twilight
Astronomical Twilight
Moon
Length of Visible Light
Length of Day
Tomorrow will be .
, % of the Moon is Illuminated

Today's Extremes

State Highs State Lows

Community

WunderPhotos

Upload Photos

1,892,733 photos uploaded!

WunderBlog® & News

Nearby

Air Quality

  Air Quality AQ Index Pollutant
Not available.

Snow Depth

Station Depth Elevation

Earthquake Activity

City Distance Mag. Time & Date
Minimum magnitude displayed is 2.5.

Coastal Water Temperatures

Place Temperature

Stations

Nearby Weather Stations

Station Location Temp. Windchill Dew Point Humidity Wind Precip. Elev Updated Type
                   

Watches & Warnings

Wind Chill Advisory
Issued: 6:03 PM EST Feb. 13, 2016 – National Weather Service

... Wind Chill Advisory remains in effect until 9 am EST Sunday...

* wind chill... as low as 14 below. Temperature 4 below to 12 above
zero... and west wind 10 to 15 mph.

* Impact... frost bite and hypothermia are likely if precautions
are not taken.

Precautionary/preparedness actions...

A Wind Chill Advisory means that very cold air and strong wind will
combine to generate low wind chill indices. Make sure you dress
appropriately.